createdAt,value
2018-07-13T00:02:25.800Z,95305.87
2018-07-13T00:04:55.455Z,95308.73
2018-07-13T00:07:25.323Z,95312.56
2018-07-13T00:09:55.119Z,95301.94
2018-07-13T00:12:24.916Z,95308.88
2018-07-13T00:15:07.543Z,95313.05
2018-07-13T00:17:37.446Z,95320.42
2018-07-13T00:20:07.906Z,95316.66
2018-07-13T00:22:37.659Z,95320.10
2018-07-13T00:25:07.359Z,95315.47
2018-07-13T00:27:37.156Z,95318.40
2018-07-13T00:30:07.029Z,95316.44
2018-07-13T00:32:36.612Z,95318.19
2018-07-13T00:35:06.513Z,95321.45
2018-07-13T00:37:36.297Z,95317.12
2018-07-13T00:40:06.724Z,95326.08
2018-07-13T00:42:36.685Z,95320.73
2018-07-13T00:45:06.345Z,95325.64
2018-07-13T00:47:36.193Z,95326.67
2018-07-13T00:50:06.113Z,95327.38
2018-07-13T00:52:35.853Z,95324.88
2018-07-13T00:55:05.648Z,95321.73
2018-07-13T00:57:35.302Z,95324.77
2018-07-13T01:00:05.088Z,95325.20
2018-07-13T01:02:34.813Z,95329.13
2018-07-13T01:05:04.726Z,95324.28
2018-07-13T01:07:34.465Z,95322.96
2018-07-13T01:10:05.348Z,95319.47
2018-07-13T01:12:35.100Z,95316.12
2018-07-13T01:15:04.947Z,95314.35
2018-07-13T01:17:35.520Z,95325.02
2018-07-13T01:20:05.450Z,95325.12
2018-07-13T01:22:35.345Z,95329.03
2018-07-13T01:25:05.076Z,95326.45
2018-07-13T01:27:35.256Z,95326.88
2018-07-13T01:30:05.573Z,95325.48
2018-07-13T01:32:35.360Z,95328.13
2018-07-13T01:35:05.269Z,95325.06
2018-07-13T01:37:34.968Z,95329.48
2018-07-13T01:40:04.762Z,95328.86
2018-07-13T01:42:34.454Z,95330.28
2018-07-13T01:45:04.536Z,95321.84
2018-07-13T01:47:34.318Z,95324.07
2018-07-13T01:50:04.067Z,95327.00
2018-07-13T01:52:33.881Z,95324.81
2018-07-13T01:55:03.772Z,95326.83
2018-07-13T01:57:33.618Z,95329.97
2018-07-13T02:00:03.594Z,95329.97
2018-07-13T02:02:33.331Z,95327.51
2018-07-13T02:05:03.076Z,95323.64
2018-07-13T02:07:32.844Z,95330.92
2018-07-13T02:10:02.547Z,95331.05
2018-07-13T02:12:32.337Z,95329.31
2018-07-13T02:15:02.238Z,95334.70
2018-07-13T02:17:31.894Z,95336.58
2018-07-13T02:20:01.745Z,95334.78
2018-07-13T02:22:31.552Z,95333.88
2018-07-13T02:25:01.268Z,95336.96
2018-07-13T02:27:30.863Z,95337.06
2018-07-13T02:30:00.663Z,95341.45
2018-07-13T02:32:30.435Z,95343.91
2018-07-13T02:35:00.245Z,95337.08
2018-07-13T02:37:29.929Z,95339.98
2018-07-13T02:39:59.765Z,95337.28
2018-07-13T02:42:29.609Z,95336.28
2018-07-13T02:44:59.423Z,95337.52
2018-07-13T02:47:29.417Z,95080.62
2018-07-13T02:49:59.191Z,95342.00
2018-07-13T02:52:28.757Z,95340.66
2018-07-13T02:54:58.602Z,95337.73
2018-07-13T02:57:28.407Z,95341.34
2018-07-13T02:59:58.209Z,95343.46
2018-07-13T03:02:27.975Z,95349.08
2018-07-13T03:04:57.774Z,95348.38
2018-07-13T03:07:27.651Z,95346.09
2018-07-13T03:09:57.471Z,95342.23
2018-07-13T03:12:27.309Z,95351.13
2018-07-13T03:14:57.048Z,95348.10
2018-07-13T03:17:26.927Z,95348.75
2018-07-13T03:19:56.813Z,95341.34
2018-07-13T03:22:26.427Z,95348.77
2018-07-13T03:24:56.225Z,95347.28
2018-07-13T03:27:26.061Z,95348.33
2018-07-13T03:29:55.935Z,95349.19
2018-07-13T03:32:25.698Z,95346.97
2018-07-13T03:34:55.403Z,95352.45
2018-07-13T03:37:25.237Z,95356.61
2018-07-13T03:39:55.067Z,95357.86
2018-07-13T03:42:24.818Z,95356.16
2018-07-13T03:44:54.609Z,95349.00
2018-07-13T03:47:24.390Z,95348.87
2018-07-13T03:49:54.244Z,95350.11
2018-07-13T03:52:24.086Z,95352.67
2018-07-13T03:54:53.825Z,95350.07
2018-07-13T03:57:23.633Z,95350.56
2018-07-13T03:59:53.523Z,95351.23
2018-07-13T04:02:23.442Z,95345.16
2018-07-13T04:04:53.164Z,95347.19
2018-07-13T04:07:22.811Z,95349.42
2018-07-13T04:09:52.517Z,95351.02
2018-07-13T04:12:22.251Z,95341.89
2018-07-13T04:14:52.157Z,95339.27
2018-07-13T04:17:21.845Z,95345.82
2018-07-13T04:19:51.676Z,95347.73
2018-07-13T04:22:21.353Z,95351.00
2018-07-13T04:24:51.315Z,95351.36
2018-07-13T04:27:21.343Z,95354.52
2018-07-13T04:29:51.194Z,95354.36
2018-07-13T04:32:21.117Z,95354.08
2018-07-13T04:34:50.820Z,95353.76
2018-07-13T04:37:20.540Z,95349.17
2018-07-13T04:39:50.343Z,95353.39
2018-07-13T04:42:20.217Z,95356.24
2018-07-13T04:44:50.045Z,95355.25
2018-07-13T04:47:20.174Z,95361.63
2018-07-13T04:49:53.043Z,95359.86
2018-07-13T04:52:20.838Z,95358.63
2018-07-13T04:54:51.429Z,95362.13
2018-07-13T04:57:23.162Z,95359.95
2018-07-13T04:59:53.668Z,95354.89
2018-07-13T05:02:24.401Z,95359.91
2018-07-13T05:04:54.807Z,95355.38
2018-07-13T05:07:26.185Z,95359.97
2018-07-13T05:09:56.348Z,95351.69
2018-07-13T05:12:26.695Z,95348.02
2018-07-13T05:14:57.066Z,95346.22
2018-07-13T05:17:27.894Z,95342.42
2018-07-13T05:19:58.307Z,95340.81
2018-07-13T05:22:28.639Z,95344.45
2018-07-13T05:24:59.354Z,95343.31
2018-07-13T05:27:31.461Z,95332.46
2018-07-13T05:30:02.485Z,95335.19
2018-07-13T05:32:32.782Z,95336.74
2018-07-13T05:35:03.486Z,95338.66
2018-07-13T05:37:34.665Z,95334.63
2018-07-13T05:40:06.311Z,95337.53
2018-07-13T05:42:36.985Z,95341.31
2018-07-13T05:45:07.495Z,95338.48
2018-07-13T05:47:38.815Z,95334.71
2018-07-13T05:50:09.385Z,95336.55
2018-07-13T05:52:39.809Z,95338.86
2018-07-13T05:55:10.445Z,95332.88
2018-07-13T05:57:41.123Z,95332.31
2018-07-13T06:00:11.350Z,95329.79
2018-07-13T06:02:41.629Z,95321.09
2018-07-13T06:05:11.718Z,95317.23
2018-07-13T06:07:42.923Z,95320.16
2018-07-13T06:10:13.684Z,95319.60
2018-07-13T06:12:44.172Z,95330.80
2018-07-13T06:15:14.597Z,95322.27
2018-07-13T06:17:44.812Z,95321.62
2018-07-13T06:20:15.181Z,95320.48
2018-07-13T06:22:45.586Z,95322.99
2018-07-13T06:25:15.784Z,95324.59
2018-07-13T06:27:46.533Z,95315.05
2018-07-13T06:30:16.912Z,95316.61
2018-07-13T06:32:47.624Z,95310.70
2018-07-13T06:35:18.044Z,95310.93
2018-07-13T06:37:48.985Z,95310.89
2018-07-13T06:40:19.445Z,95306.98
2018-07-13T06:42:49.788Z,95298.98
2018-07-13T06:45:20.119Z,95303.96
2018-07-13T06:47:51.192Z,95298.83
2018-07-13T06:50:21.693Z,95295.38
2018-07-13T06:52:52.034Z,95292.14
2018-07-13T06:55:22.261Z,95292.08
2018-07-13T06:58:04.097Z,95293.05
2018-07-13T07:01:06.089Z,95293.95
2018-07-13T07:03:38.438Z,95291.42
2018-07-13T07:06:11.041Z,95282.71
2018-07-13T07:08:43.902Z,95284.08
2018-07-13T07:11:14.797Z,95281.31
2018-07-13T07:13:46.389Z,95291.84
2018-07-13T07:16:18.674Z,95287.28
2018-07-13T07:18:48.722Z,95284.73
2018-07-13T07:21:19.036Z,95280.97
2018-07-13T07:23:49.201Z,95284.63
2018-07-13T07:26:20.771Z,95278.12
2018-07-13T07:28:51.032Z,95277.92
2018-07-13T07:31:21.445Z,95275.95
2018-07-13T07:33:51.766Z,95271.66
2018-07-13T07:36:22.710Z,95264.42
2018-07-13T07:38:52.924Z,95265.81
2018-07-13T07:41:23.222Z,95257.42
2018-07-13T07:43:53.609Z,95259.81
2018-07-13T07:46:25.420Z,95258.81
2018-07-13T07:48:55.970Z,95253.13
2018-07-13T07:51:25.716Z,95258.30
2018-07-13T07:53:56.426Z,95245.54
2018-07-13T07:56:27.827Z,95244.97
2018-07-13T07:58:58.382Z,95239.73
2018-07-13T08:01:28.532Z,95245.48
2018-07-13T08:03:59.099Z,95244.39
2018-07-13T08:06:30.033Z,95251.61
2018-07-13T08:09:00.979Z,95251.68
2018-07-13T08:11:31.389Z,95242.80
2018-07-13T08:14:02.098Z,95241.97
2018-07-13T08:16:32.773Z,95241.28
2018-07-13T08:19:03.570Z,95239.79
2018-07-13T08:21:37.947Z,95245.41
2018-07-13T08:24:08.782Z,95244.24
2018-07-13T08:26:41.208Z,95245.23
2018-07-13T08:29:12.315Z,95239.33
2018-07-13T08:31:42.749Z,95233.83
2018-07-13T08:34:12.960Z,95233.47
2018-07-13T08:36:44.252Z,95236.16
2018-07-13T08:39:15.061Z,95233.81
2018-07-13T08:41:45.584Z,95230.20
2018-07-13T08:44:15.923Z,95238.88
2018-07-13T08:46:46.607Z,95237.38
2018-07-13T08:49:17.171Z,95229.61
2018-07-13T08:51:47.994Z,95230.52
2018-07-13T08:54:18.800Z,95229.75
2018-07-13T08:56:50.817Z,95230.59
2018-07-13T08:59:20.900Z,95229.48
2018-07-13T09:01:51.085Z,95228.33
2018-07-13T09:04:21.159Z,95217.11
2018-07-13T09:06:52.153Z,95211.13
2018-07-13T09:09:22.829Z,95211.20
2018-07-13T09:11:53.238Z,95204.70
2018-07-13T09:14:23.693Z,95211.06
2018-07-13T09:16:55.493Z,95206.11
2018-07-13T09:19:25.544Z,95202.47
2018-07-13T09:21:55.867Z,95200.33
2018-07-13T09:24:26.237Z,95191.37
2018-07-13T09:26:56.635Z,95188.98
2018-07-13T09:29:26.823Z,95196.14
2018-07-13T09:31:56.962Z,95187.59
2018-07-13T09:34:27.320Z,95181.77
2018-07-13T09:36:59.597Z,95186.06
2018-07-13T09:39:29.886Z,95170.07
2018-07-13T09:42:00.517Z,95177.37
2018-07-13T09:44:30.942Z,95170.78
2018-07-13T09:47:01.773Z,95150.17
2018-07-13T09:49:32.105Z,95163.59
2018-07-13T09:52:03.351Z,95164.38
2018-07-13T09:54:33.656Z,95163.86
2018-07-13T09:57:05.222Z,95163.56
2018-07-13T09:59:35.956Z,95156.84
2018-07-13T10:02:06.279Z,95154.06
2018-07-13T10:04:36.706Z,95147.94
2018-07-13T10:07:10.613Z,95149.88
2018-07-13T10:09:41.382Z,95141.72
2018-07-13T10:12:13.411Z,95140.63
2018-07-13T10:14:43.934Z,95147.72
2018-07-13T10:17:16.433Z,95147.30
2018-07-13T10:19:46.972Z,95139.72
2018-07-13T10:22:19.416Z,95132.70
2018-07-13T10:24:51.020Z,95131.58
2018-07-13T10:27:21.602Z,95133.73
2018-07-13T10:29:53.829Z,95128.72
2018-07-13T10:32:24.196Z,95132.91
2018-07-13T10:34:56.151Z,95119.75
2018-07-13T10:37:29.622Z,95112.24
2018-07-13T10:39:59.833Z,95106.21
2018-07-13T10:42:30.408Z,95099.05
2018-07-13T10:45:01.140Z,95093.80
2018-07-13T10:47:32.198Z,95086.40
2018-07-13T10:50:02.816Z,95089.26
2018-07-13T10:52:33.197Z,95089.09
2018-07-13T10:55:03.885Z,95082.86
2018-07-13T10:57:34.458Z,95089.64
2018-07-13T11:00:05.094Z,95078.03
2018-07-13T11:02:35.162Z,95083.22
2018-07-13T11:05:05.426Z,95075.30
2018-07-13T11:07:36.276Z,95072.80
2018-07-13T11:10:06.639Z,95069.78
2018-07-13T11:12:36.879Z,95065.04
2018-07-13T11:15:07.437Z,95065.41
2018-07-13T11:17:38.470Z,95068.52
2018-07-13T11:20:08.936Z,95067.08
2018-07-13T11:22:39.055Z,95066.78
2018-07-13T11:25:09.314Z,95062.02
2018-07-13T11:27:40.642Z,95051.30
2018-07-13T11:30:11.128Z,95058.80
2018-07-13T11:32:41.648Z,95060.48
2018-07-13T11:35:12.002Z,95056.22
2018-07-13T11:37:43.658Z,95057.77
2018-07-13T11:40:13.799Z,95059.75
2018-07-13T11:42:44.163Z,95054.60
2018-07-13T11:45:14.288Z,95043.30
2018-07-13T11:47:44.513Z,95032.37
2018-07-13T11:50:14.329Z,95034.75
2018-07-13T11:52:44.080Z,95026.21
2018-07-13T11:55:14.137Z,95030.74
2018-07-13T11:57:43.944Z,95033.71
2018-07-13T12:00:13.821Z,95024.53
2018-07-13T12:02:43.566Z,95029.48
2018-07-13T12:05:13.429Z,95040.27
2018-07-13T12:07:43.466Z,95040.67
2018-07-13T12:10:13.006Z,95037.58
2018-07-13T12:12:42.888Z,95043.22
2018-07-13T12:15:12.630Z,95047.18
2018-07-13T12:17:42.428Z,95052.38
2018-07-13T12:20:12.294Z,95066.52
2018-07-13T12:22:42.038Z,95067.53
2018-07-13T12:25:11.837Z,95076.44
2018-07-13T12:27:41.530Z,95073.75
2018-07-13T12:30:11.249Z,95071.09
2018-07-13T12:32:40.898Z,95070.09
2018-07-13T12:35:10.784Z,95066.40
2018-07-13T12:37:40.590Z,95058.81
2018-07-13T12:40:10.341Z,95058.33
2018-07-13T12:42:40.175Z,95060.21
2018-07-13T12:45:09.943Z,95079.64
2018-07-13T12:47:39.746Z,95088.52
2018-07-13T12:50:09.577Z,95089.96
2018-07-13T12:52:39.802Z,95106.97
2018-07-13T12:55:10.468Z,95127.62
2018-07-13T12:57:41.715Z,95142.71
2018-07-13T13:00:11.577Z,95168.37
2018-07-13T13:02:41.414Z,95181.63
2018-07-13T13:05:11.025Z,95196.18
2018-07-13T13:07:41.339Z,95209.09
2018-07-13T13:10:11.137Z,95220.61
2018-07-13T13:12:40.881Z,95242.52
2018-07-13T13:15:10.606Z,95240.05
2018-07-13T13:17:40.386Z,95219.52
2018-07-13T13:20:10.271Z,95227.02
2018-07-13T13:22:40.142Z,95260.70
2018-07-13T13:25:10.105Z,95280.63
2018-07-13T13:27:39.923Z,95296.87
2018-07-13T13:30:09.785Z,95291.88
2018-07-13T13:32:39.615Z,95285.21
2018-07-13T13:35:09.327Z,95307.61
2018-07-13T13:37:39.145Z,95321.30
2018-07-13T13:40:08.972Z,95333.67
2018-07-13T13:42:38.806Z,95311.50
2018-07-13T13:45:08.631Z,95298.44
2018-07-13T13:47:38.325Z,95308.59
2018-07-13T13:50:08.238Z,95309.47
2018-07-13T13:52:37.922Z,95306.91
2018-07-13T13:55:07.994Z,95316.95
2018-07-13T13:57:37.768Z,95327.41
2018-07-13T14:00:07.965Z,95316.30
2018-07-13T14:02:37.639Z,95270.09
2018-07-13T14:05:08.391Z,95311.31
2018-07-13T14:07:39.510Z,95305.08
2018-07-13T14:10:09.767Z,95301.81
2018-07-13T14:12:39.891Z,95300.74
2018-07-13T14:15:10.346Z,95283.79
2018-07-13T14:18:44.266Z,95276.02
2018-07-13T14:21:14.684Z,95267.16
2018-07-13T14:23:45.348Z,95266.12
2018-07-13T14:26:15.785Z,95259.27
2018-07-13T14:28:46.231Z,95255.11
2018-07-13T14:31:16.421Z,95239.52
2018-07-13T14:33:46.743Z,95239.07
2018-07-13T14:36:17.547Z,95234.75
2018-07-13T14:38:47.698Z,95227.11
2018-07-13T14:41:17.928Z,95228.76
2018-07-13T14:43:48.423Z,95222.67
2018-07-13T14:46:18.612Z,95224.98
2018-07-13T14:48:48.913Z,95214.36
2018-07-13T14:51:19.001Z,95215.68
2018-07-13T14:53:49.053Z,95211.42
2018-07-13T14:56:20.284Z,95206.31
2018-07-13T14:58:50.919Z,95205.58
2018-07-13T15:01:21.067Z,95198.86
2018-07-13T15:03:51.512Z,95190.87
2018-07-13T15:06:22.916Z,95183.28
2018-07-13T15:08:53.322Z,95174.42
2018-07-13T15:11:23.718Z,95169.98
2018-07-13T15:13:54.205Z,95166.94
2018-07-13T15:16:24.864Z,95156.98
2018-07-13T15:18:55.320Z,95163.23
2018-07-13T15:21:25.661Z,95159.92
2018-07-13T15:23:55.874Z,95153.45
2018-07-13T15:26:27.447Z,95155.81
2018-07-13T15:28:58.211Z,95159.99
2018-07-13T15:31:28.476Z,95164.98
2018-07-13T15:33:59.104Z,95165.75
2018-07-13T15:36:29.870Z,95169.03
2018-07-13T15:39:00.235Z,95167.13
2018-07-13T15:41:30.703Z,95166.98
2018-07-13T15:44:01.095Z,95164.02
2018-07-13T15:46:31.706Z,95169.50
2018-07-13T15:49:02.169Z,95171.67
2018-07-13T15:51:32.387Z,95177.91
2018-07-13T15:54:02.755Z,95182.13
2018-07-13T15:56:34.059Z,95182.84
2018-07-13T15:59:04.809Z,95179.91
2018-07-13T16:01:35.106Z,95180.71
2018-07-13T16:04:05.210Z,95181.02
2018-07-13T16:06:36.311Z,95182.40
2018-07-13T16:09:07.483Z,95182.56
2018-07-13T16:11:37.968Z,95186.41
2018-07-13T16:14:08.353Z,95182.55
2018-07-13T16:16:38.627Z,95191.88
2018-07-13T16:19:08.752Z,95195.45
2018-07-13T16:21:38.949Z,95198.89
2018-07-13T16:24:09.603Z,95202.55
2018-07-13T16:26:41.190Z,95202.62
2018-07-13T16:29:11.588Z,95199.53
2018-07-13T16:31:41.702Z,95200.98
2018-07-13T16:34:12.752Z,95200.05
2018-07-13T16:36:43.428Z,95205.52
2018-07-13T16:39:13.248Z,95201.55
2018-07-13T16:41:43.015Z,95200.73
2018-07-13T16:44:12.742Z,95203.56
2018-07-13T16:46:42.594Z,95203.77
2018-07-13T16:49:12.466Z,95203.66
2018-07-13T16:51:42.278Z,95201.22
2018-07-13T16:54:12.077Z,95203.39
2018-07-13T16:56:41.733Z,95205.69
2018-07-13T16:59:11.562Z,95202.30
2018-07-13T17:01:41.564Z,95205.48
2018-07-13T17:04:11.640Z,95198.72
2018-07-13T17:06:42.122Z,95198.41
2018-07-13T17:09:12.274Z,95200.95
2018-07-13T17:11:42.878Z,95205.94
2018-07-13T17:14:13.390Z,95213.11
2018-07-13T17:16:44.333Z,95211.19
2018-07-13T17:19:14.098Z,95211.33
2018-07-13T17:21:43.954Z,95213.48
2018-07-13T17:24:13.708Z,95212.09
2018-07-13T17:26:43.571Z,95216.32
2018-07-13T17:29:13.342Z,95221.95
2018-07-13T17:31:43.139Z,95222.02
2018-07-13T17:34:14.131Z,95221.39
2018-07-13T17:36:48.996Z,95224.08
2018-07-13T17:39:18.824Z,95221.61
2018-07-13T17:41:48.597Z,95227.80
2018-07-13T17:44:19.020Z,95225.38
2018-07-13T17:46:48.793Z,95221.53
2018-07-13T17:49:18.636Z,95226.86
2018-07-13T17:51:48.429Z,95225.08
2018-07-13T17:54:18.123Z,95229.23
2018-07-13T17:56:47.893Z,95231.80
2018-07-13T17:59:17.604Z,95230.88
2018-07-13T18:01:47.537Z,95233.63
2018-07-13T18:04:17.346Z,95234.68
2018-07-13T18:06:47.318Z,95245.95
2018-07-13T18:09:17.121Z,95251.26
2018-07-13T18:11:46.947Z,95254.54
2018-07-13T18:14:16.862Z,95254.18
2018-07-13T18:16:46.503Z,95254.92
2018-07-13T18:19:16.354Z,95256.94
2018-07-13T18:21:45.990Z,95257.72
2018-07-13T18:24:15.827Z,95257.66
2018-07-13T18:26:45.579Z,95259.45
2018-07-13T18:29:15.380Z,95273.80
2018-07-13T18:31:45.104Z,95269.92
2018-07-13T18:34:14.928Z,95276.20
2018-07-13T18:36:44.774Z,95275.69
2018-07-13T18:39:14.598Z,95280.64
2018-07-13T18:41:44.342Z,95277.03
2018-07-13T18:44:14.234Z,95278.48
2018-07-13T18:46:44.083Z,95293.86
2018-07-13T18:49:13.946Z,95297.98
2018-07-13T18:51:43.598Z,95297.84
2018-07-13T18:54:13.309Z,95296.77
2018-07-13T18:56:43.007Z,95299.20
2018-07-13T18:59:12.804Z,95304.58
2018-07-13T19:01:42.605Z,95298.66
2018-07-13T19:04:12.521Z,95300.85
2018-07-13T19:06:42.276Z,95303.47
2018-07-13T19:09:12.185Z,95299.42
2018-07-13T19:11:41.997Z,95308.30
2018-07-13T19:14:11.795Z,95307.77
2018-07-13T19:16:41.640Z,95307.63
2018-07-13T19:19:11.536Z,95307.55
2018-07-13T19:21:41.220Z,95315.81
2018-07-13T19:24:10.973Z,95315.84
2018-07-13T19:26:40.858Z,95321.05
2018-07-13T19:29:10.546Z,95329.28
2018-07-13T19:31:40.490Z,95334.53
2018-07-13T19:34:10.282Z,95343.81
2018-07-13T19:36:40.028Z,95338.47
2018-07-13T19:39:09.851Z,95340.59
2018-07-13T19:41:39.629Z,95332.19
2018-07-13T19:44:09.476Z,95334.33
2018-07-13T19:46:39.245Z,95336.12
2018-07-13T19:49:09.023Z,95339.42
2018-07-13T19:51:38.771Z,95347.01
2018-07-13T19:54:08.724Z,95348.08
2018-07-13T19:56:38.545Z,95346.34
2018-07-13T19:59:08.349Z,95298.11
2018-07-13T20:01:38.197Z,95344.09
2018-07-13T20:04:08.093Z,95339.12
2018-07-13T20:06:37.907Z,95343.31
2018-07-13T20:09:08.225Z,95344.50
2018-07-13T20:11:38.043Z,95340.00
2018-07-13T20:14:07.798Z,95342.36
2018-07-13T20:16:37.562Z,95340.56
2018-07-13T20:19:07.316Z,95347.53
2018-07-13T20:21:37.110Z,95339.23
2018-07-13T20:24:07.035Z,95339.44
2018-07-13T20:26:36.904Z,95337.52
2018-07-13T20:29:06.635Z,95343.59
2018-07-13T20:31:36.433Z,95342.44
2018-07-13T20:34:06.453Z,95349.66
2018-07-13T20:36:36.255Z,95346.19
2018-07-13T20:39:06.925Z,95348.28
2018-07-13T20:41:37.158Z,95345.91
2018-07-13T20:44:07.270Z,95351.94
2018-07-13T20:46:38.073Z,95356.38
2018-07-13T20:49:07.833Z,95349.12
2018-07-13T20:51:37.630Z,95356.05
2018-07-13T20:54:08.549Z,95356.27
2018-07-13T20:56:39.413Z,95357.45
2018-07-13T20:59:09.093Z,95352.33
2018-07-13T21:03:03.144Z,95350.95
2018-07-13T21:05:32.753Z,95359.48
2018-07-13T21:08:02.899Z,95360.58
2018-07-13T21:10:32.791Z,95359.20
2018-07-13T21:13:02.612Z,95357.94
2018-07-13T21:15:32.388Z,95350.56
2018-07-13T21:18:02.256Z,95351.24
2018-07-13T21:20:32.151Z,95357.86
2018-07-13T21:23:02.046Z,95354.13
2018-07-13T21:25:31.859Z,95345.83
2018-07-13T21:28:01.631Z,95345.17
2018-07-13T21:30:31.503Z,95344.05
2018-07-13T21:33:01.189Z,95341.80
2018-07-13T21:35:30.988Z,95349.11
2018-07-13T21:38:00.888Z,95350.11
2018-07-13T21:40:30.728Z,95354.82
2018-07-13T21:43:00.531Z,95355.62
2018-07-13T21:45:30.282Z,95355.27
2018-07-13T21:48:00.081Z,95353.36
2018-07-13T21:50:29.810Z,95351.56
2018-07-13T21:52:59.709Z,95349.75
2018-07-13T21:55:29.498Z,95356.08
2018-07-13T21:57:59.383Z,95353.93
2018-07-13T22:00:29.179Z,95355.84
2018-07-13T22:02:58.921Z,95353.14
2018-07-13T22:05:28.750Z,95360.36
2018-07-13T22:07:58.657Z,95353.93
2018-07-13T22:10:28.775Z,95357.96
2018-07-13T22:12:58.566Z,95368.30
2018-07-13T22:15:28.449Z,95363.06
2018-07-13T22:17:58.320Z,95365.61
2018-07-13T22:20:28.038Z,95358.32
2018-07-13T22:22:57.838Z,95354.38
2018-07-13T22:25:27.486Z,95363.14
2018-07-13T22:27:57.401Z,95363.60
2018-07-13T22:30:27.047Z,95365.17
2018-07-13T22:32:56.774Z,95366.84
2018-07-13T22:35:26.433Z,95362.13
2018-07-13T22:37:56.177Z,95360.14
2018-07-13T22:40:26.150Z,95360.27
2018-07-13T22:42:55.977Z,95348.36
2018-07-13T22:45:25.748Z,95347.06
2018-07-13T22:47:55.586Z,95345.39
2018-07-13T22:50:25.301Z,95341.46
2018-07-13T22:52:55.082Z,95336.18
2018-07-13T22:55:24.962Z,95328.86
2018-07-13T22:57:54.850Z,95332.34
2018-07-13T23:00:24.707Z,95341.91
2018-07-13T23:02:54.468Z,95343.81
2018-07-13T23:05:24.191Z,95333.70
2018-07-13T23:07:54.045Z,95328.75
2018-07-13T23:10:23.749Z,95322.95
2018-07-13T23:12:53.759Z,95320.36
2018-07-13T23:15:23.442Z,95323.11
2018-07-13T23:17:53.081Z,95324.58
2018-07-13T23:20:22.811Z,95331.41
2018-07-13T23:22:52.614Z,95333.27
2018-07-13T23:25:22.389Z,95339.32
2018-07-13T23:27:52.037Z,95335.87
2018-07-13T23:30:21.853Z,95327.77
2018-07-13T23:32:51.638Z,95327.05
2018-07-13T23:35:21.627Z,95321.16
2018-07-13T23:37:51.408Z,95323.03
2018-07-13T23:40:21.170Z,95318.52
2018-07-13T23:42:50.981Z,95317.34
2018-07-13T23:45:20.621Z,95319.11
2018-07-13T23:47:50.431Z,95313.41
2018-07-13T23:50:20.300Z,95305.92
2018-07-13T23:52:49.957Z,95301.01
2018-07-13T23:55:19.680Z,95301.38
2018-07-13T23:57:49.566Z,95297.67
